Time;durP1;ratioP1;P1;durP2;ratioP2;P2;SDS_P1;SDS_P2;PMS_P1;PMS_P2;Temp;Humidity;BMP_temperature;BMP_pressure;BME280_temperature;BME280_humidity;BME280_pressure;Samples;Min_cycle;Max_cycle;Signal;HPM_P1;HPM_P2
2021/03/07 00:00:37;;;;;;;17.10;11.52;;;0.80;81.40;;;;;;5056068;28;20068;-74
2021/03/07 00:03:03;;;;;;;16.65;11.27;;;0.90;81.60;;;;;;5065956;28;20059;-73
2021/03/07 00:05:29;;;;;;;16.83;11.57;;;0.90;81.80;;;;;;5057278;28;20032;-72
2021/03/07 00:07:55;;;;;;;15.73;11.75;;;0.80;82.00;;;;;;5056592;28;20395;-72
2021/03/07 00:10:21;;;;;;;16.27;11.52;;;0.80;82.10;;;;;;5054436;28;20064;-72
2021/03/07 00:12:49;;;;;;;17.08;11.48;;;0.80;82.30;;;;;;5061610;28;20510;-74
2021/03/07 00:15:16;;;;;;;15.38;10.85;;;0.80;82.40;;;;;;5059756;28;20068;-71
2021/03/07 00:17:41;;;;;;;19.20;11.93;;;0.80;82.30;;;;;;5054593;28;20025;-73
2021/03/07 00:20:11;;;;;;;14.85;10.95;;;0.80;82.40;;;;;;5069285;28;20414;-71
2021/03/07 00:22:37;;;;;;;16.92;11.70;;;0.80;82.50;;;;;;5067262;28;20033;-72
2021/03/07 00:25:05;;;;;;;16.50;10.85;;;0.80;82.60;;;;;;5065686;28;20390;-72
2021/03/07 00:27:31;;;;;;;17.98;11.32;;;0.70;82.70;;;;;;5064963;28;20407;-74
2021/03/07 00:29:57;;;;;;;17.17;12.40;;;0.70;83.00;;;;;;5060718;28;20033;-78
2021/03/07 00:32:23;;;;;;;23.17;13.52;;;0.70;83.30;;;;;;5064980;28;20099;-72
2021/03/07 00:34:48;;;;;;;16.13;12.63;;;0.70;83.30;;;;;;5053344;28;20083;-71
2021/03/07 00:37:14;;;;;;;20.75;13.18;;;0.70;83.90;;;;;;5050634;28;20124;-71
2021/03/07 00:39:40;;;;;;;19.27;14.57;;;0.80;84.40;;;;;;5069254;28;20032;-72
2021/03/07 00:42:06;;;;;;;21.95;14.70;;;0.80;84.40;;;;;;5068117;28;20492;-73
2021/03/07 00:44:31;;;;;;;22.15;14.60;;;0.80;84.70;;;;;;5058725;28;20082;-73
2021/03/07 00:46:57;;;;;;;22.65;15.23;;;0.80;84.70;;;;;;5073155;28;20566;-73
2021/03/07 00:49:25;;;;;;;25.65;15.50;;;0.70;84.80;;;;;;5058686;28;20063;-80
2021/03/07 00:51:51;;;;;;;21.35;14.88;;;0.70;84.80;;;;;;5059466;28;20037;-76
2021/03/07 00:54:17;;;;;;;19.10;15.38;;;0.60;85.00;;;;;;5065833;28;20039;-71
2021/03/07 00:56:43;;;;;;;23.17;15.55;;;0.60;85.10;;;;;;5066959;28;20128;-71
2021/03/07 00:59:09;;;;;;;23.70;15.75;;;0.60;85.20;;;;;;5059780;28;20407;-71
2021/03/07 01:01:35;;;;;;;25.50;15.65;;;0.50;85.20;;;;;;5054978;28;20045;-72
2021/03/07 01:04:01;;;;;;;23.35;15.52;;;0.50;85.20;;;;;;5057913;28;20085;-78
2021/03/07 01:06:27;;;;;;;22.40;16.70;;;0.40;85.30;;;;;;5068251;28;20041;-71
2021/03/07 01:08:52;;;;;;;22.35;16.00;;;0.40;85.40;;;;;;5055029;28;20036;-71
2021/03/07 01:11:19;;;;;;;23.20;16.17;;;0.40;85.40;;;;;;5055555;28;20028;-71
2021/03/07 01:13:45;;;;;;;22.63;15.35;;;0.40;85.40;;;;;;5061375;28;20040;-73
2021/03/07 01:16:11;;;;;;;22.45;15.68;;;0.40;85.50;;;;;;5059153;28;20045;-71
2021/03/07 01:18:37;;;;;;;24.23;15.73;;;0.30;85.40;;;;;;5059904;28;20073;-71
2021/03/07 01:21:03;;;;;;;22.95;14.88;;;0.20;85.40;;;;;;5066966;28;20044;-71
2021/03/07 01:23:33;;;;;;;21.85;15.00;;;0.20;85.30;;;;;;5067108;28;20159;-72
2021/03/07 01:25:59;;;;;;;22.13;14.48;;;0.20;85.30;;;;;;5068134;28;20033;-74
2021/03/07 01:28:25;;;;;;;17.63;14.13;;;0.10;85.40;;;;;;5063918;28;20463;-72
2021/03/07 01:30:51;;;;;;;22.58;15.15;;;0.10;85.40;;;;;;5060710;28;20039;-72
2021/03/07 01:33:17;;;;;;;20.10;14.68;;;0.10;85.40;;;;;;5066365;28;20485;-72
2021/03/07 01:35:43;;;;;;;28.83;16.55;;;0.10;85.40;;;;;;5060839;28;20139;-72
2021/03/07 01:38:08;;;;;;;19.77;14.15;;;0.10;85.40;;;;;;5065914;28;20085;-71
2021/03/07 01:40:39;;;;;;;20.63;14.23;;;0.00;85.30;;;;;;5059490;28;20021;-73
2021/03/07 01:43:05;;;;;;;19.80;13.95;;;0.00;85.40;;;;;;5061647;28;20036;-71
2021/03/07 01:45:32;;;;;;;22.20;15.13;;;0.00;85.30;;;;;;5057057;28;20040;-73
2021/03/07 01:48:00;;;;;;;19.83;15.23;;;0.00;85.30;;;;;;5067538;28;20506;-72
2021/03/07 01:50:28;;;;;;;24.05;16.80;;;0.00;85.30;;;;;;5061914;28;20476;-74
2021/03/07 01:52:54;;;;;;;25.05;16.92;;;0.00;85.40;;;;;;5063009;28;20036;-71
2021/03/07 01:55:23;;;;;;;23.65;16.17;;;0.00;85.30;;;;;;5057553;28;20029;-72
2021/03/07 01:57:57;;;;;;;24.50;16.20;;;0.00;85.40;;;;;;5056131;28;20037;-76
2021/03/07 02:00:23;;;;;;;22.00;16.13;;;0.00;85.40;;;;;;5057210;28;20489;-73
2021/03/07 02:02:49;;;;;;;21.90;16.30;;;0.00;85.10;;;;;;5065444;28;20056;-72
2021/03/07 02:05:17;;;;;;;22.67;15.25;;;0.00;84.80;;;;;;5056164;28;20121;-73
2021/03/07 02:07:44;;;;;;;20.67;14.90;;;-3276.70;84.60;;;;;;5065314;28;20513;-72
2021/03/07 02:10:14;;;;;;;19.90;15.00;;;-3276.70;84.50;;;;;;5058169;28;20048;-75
2021/03/07 02:12:40;;;;;;;19.27;14.38;;;-3276.70;84.70;;;;;;5065929;28;20059;-72
2021/03/07 02:15:09;;;;;;;18.85;14.57;;;-3276.60;84.70;;;;;;5056750;28;20045;-75
2021/03/07 02:17:36;;;;;;;23.95;16.38;;;-3276.60;84.70;;;;;;5064575;28;20519;-71
2021/03/07 02:20:03;;;;;;;19.80;15.13;;;-3276.50;85.10;;;;;;5065485;28;20033;-71
2021/03/07 02:22:36;;;;;;;23.23;16.27;;;-3276.50;85.30;;;;;;5066102;28;20027;-71
2021/03/07 02:25:06;;;;;;;22.13;15.85;;;-3276.60;85.60;;;;;;5064502;28;20082;-72
2021/03/07 02:27:31;;;;;;;28.30;16.63;;;-3276.50;86.00;;;;;;5063164;28;20029;-71
2021/03/07 02:29:57;;;;;;;23.52;17.05;;;-3276.60;86.30;;;;;;5066177;28;20035;-73
2021/03/07 02:32:25;;;;;;;21.55;16.52;;;-3276.60;86.30;;;;;;5065382;28;20024;-76
2021/03/07 02:34:57;;;;;;;26.33;17.90;;;-3276.70;86.50;;;;;;5062279;28;20044;-71
2021/03/07 02:37:23;;;;;;;23.13;17.45;;;0.00;86.80;;;;;;5062962;28;20028;-78
2021/03/07 02:39:50;;;;;;;23.33;17.95;;;-3276.70;86.70;;;;;;5066741;28;20111;-72
2021/03/07 02:42:22;;;;;;;21.63;17.20;;;-3276.70;86.90;;;;;;5066546;28;20140;-71
2021/03/07 02:44:54;;;;;;;24.23;18.10;;;-3276.70;87.00;;;;;;5061942;28;20047;-72
2021/03/07 02:47:23;;;;;;;26.00;18.05;;;-3276.70;87.20;;;;;;5061839;28;20098;-72
2021/03/07 02:49:51;;;;;;;26.80;18.45;;;-3276.60;87.30;;;;;;5064385;28;20028;-73
2021/03/07 02:52:17;;;;;;;25.90;19.85;;;-3276.60;87.40;;;;;;5064347;28;20028;-73
2021/03/07 02:54:44;;;;;;;27.30;20.17;;;-3276.60;87.60;;;;;;5063525;28;20025;-76
2021/03/07 02:57:11;;;;;;;26.80;20.45;;;-3276.60;87.80;;;;;;5063580;28;21108;-72
2021/03/07 02:59:39;;;;;;;28.35;20.75;;;-3276.60;88.10;;;;;;5057929;28;20024;-72
2021/03/07 03:02:05;;;;;;;27.45;19.73;;;-3276.60;88.20;;;;;;5053581;28;20137;-74
2021/03/07 03:04:33;;;;;;;31.90;23.25;;;-3276.60;88.20;;;;;;5064894;28;20032;-73
2021/03/07 03:07:01;;;;;;;29.17;22.73;;;-3276.70;88.50;;;;;;5063771;28;20086;-72
2021/03/07 03:09:29;;;;;;;27.63;21.10;;;-3276.60;88.50;;;;;;5041905;28;20120;-72
2021/03/07 03:11:58;;;;;;;24.63;20.23;;;-3276.60;88.40;;;;;;5037053;28;20038;-72
2021/03/07 03:14:24;;;;;;;28.60;20.65;;;-3276.60;88.40;;;;;;5057713;28;20020;-72
2021/03/07 03:16:52;;;;;;;24.77;19.88;;;-3276.70;88.20;;;;;;5054723;28;20494;-74
2021/03/07 03:19:20;;;;;;;28.50;20.77;;;-3276.70;88.20;;;;;;5066210;28;20021;-72
2021/03/07 03:21:46;;;;;;;25.10;19.42;;;-3276.60;88.20;;;;;;5060713;28;20020;-72
2021/03/07 03:24:12;;;;;;;27.95;22.42;;;-3276.60;88.20;;;;;;5053198;28;20371;-74
2021/03/07 03:26:39;;;;;;;28.92;21.50;;;-3276.60;88.30;;;;;;5064370;28;20032;-78
2021/03/07 03:29:07;;;;;;;30.38;23.17;;;-3276.60;88.30;;;;;;5055696;28;20036;-73
2021/03/07 03:31:34;;;;;;;33.83;25.25;;;-3276.60;88.30;;;;;;5064686;28;20037;-73
2021/03/07 03:34:01;;;;;;;28.77;23.33;;;-3276.60;88.60;;;;;;5062034;28;20037;-73
2021/03/07 03:36:29;;;;;;;27.45;23.70;;;-3276.60;88.60;;;;;;5060197;28;20404;-72
2021/03/07 03:38:57;;;;;;;36.47;24.60;;;-3276.60;88.70;;;;;;5063044;28;20040;-74
2021/03/07 03:41:24;;;;;;;30.85;24.08;;;-3276.50;88.70;;;;;;5062363;28;20391;-74
2021/03/07 03:43:53;;;;;;;30.90;23.65;;;-3276.50;88.80;;;;;;5056301;28;20037;-72
2021/03/07 03:46:21;;;;;;;32.08;22.67;;;-3276.50;88.90;;;;;;5053833;28;20053;-72
2021/03/07 03:48:52;;;;;;;29.52;22.77;;;-3276.60;89.00;;;;;;5063731;28;20039;-73
2021/03/07 03:51:20;;;;;;;27.95;22.35;;;-3276.50;89.00;;;;;;5064751;28;20029;-72
2021/03/07 03:53:46;;;;;;;29.90;23.33;;;-3276.50;89.00;;;;;;5055541;28;20387;-72
2021/03/07 03:56:15;;;;;;;26.90;22.13;;;-3276.50;88.90;;;;;;5067194;28;20437;-72
2021/03/07 03:58:42;;;;;;;30.20;22.55;;;-3276.50;89.10;;;;;;5063383;28;20029;-71
2021/03/07 04:01:10;;;;;;;27.48;23.30;;;-3276.50;89.20;;;;;;5061586;28;20173;-71
2021/03/07 04:03:37;;;;;;;30.50;22.80;;;-3276.50;89.10;;;;;;5056436;28;20037;-71
2021/03/07 04:06:03;;;;;;;27.90;23.02;;;-3276.40;89.10;;;;;;5058067;28;20074;-72
2021/03/07 04:08:29;;;;;;;26.58;21.40;;;-3276.50;89.10;;;;;;5058838;28;20089;-71
2021/03/07 04:10:57;;;;;;;24.75;21.85;;;-3276.40;89.10;;;;;;5064975;28;20055;-71
2021/03/07 04:13:28;;;;;;;27.23;21.55;;;-3276.40;89.10;;;;;;5064571;28;20029;-71
2021/03/07 04:15:55;;;;;;;28.45;21.33;;;-3276.40;89.10;;;;;;5067241;28;20044;-72
2021/03/07 04:18:26;;;;;;;27.05;21.55;;;-3276.40;89.00;;;;;;5068337;28;20040;-71
2021/03/07 04:20:52;;;;;;;29.98;23.08;;;-3276.40;89.00;;;;;;5071328;28;20056;-72
2021/03/07 04:23:18;;;;;;;31.15;24.52;;;-3276.40;89.20;;;;;;5059804;28;20043;-76
2021/03/07 04:25:44;;;;;;;27.77;23.08;;;-3276.50;89.10;;;;;;5066469;28;20040;-71
2021/03/07 04:28:11;;;;;;;32.08;24.48;;;-3276.50;88.90;;;;;;5056809;28;20066;-71
2021/03/07 04:30:37;;;;;;;31.20;22.45;;;-3276.40;88.80;;;;;;5066401;28;20109;-72
2021/03/07 04:33:04;;;;;;;28.02;21.83;;;-3276.50;88.90;;;;;;5059798;28;20030;-71
2021/03/07 04:35:32;;;;;;;30.67;23.85;;;-3276.40;88.70;;;;;;5069101;28;20052;-72
2021/03/07 04:38:02;;;;;;;30.27;23.73;;;-3276.40;88.80;;;;;;5067851;28;20162;-72
2021/03/07 04:40:28;;;;;;;30.67;24.15;;;-3276.50;88.70;;;;;;5056278;28;20029;-72
2021/03/07 04:42:55;;;;;;;27.83;23.13;;;-3276.40;88.80;;;;;;5046462;28;20091;-78
2021/03/07 04:45:21;;;;;;;31.50;23.85;;;-3276.50;88.70;;;;;;5060858;28;20044;-71
2021/03/07 04:47:47;;;;;;;32.47;24.13;;;-3276.50;88.70;;;;;;5065342;28;20161;-71
2021/03/07 04:50:13;;;;;;;27.42;22.45;;;-3276.50;88.60;;;;;;5068481;28;20024;-71
2021/03/07 04:52:40;;;;;;;27.27;22.98;;;-3276.50;88.40;;;;;;5079204;28;20095;-71
2021/03/07 04:55:07;;;;;;;28.30;22.17;;;-3276.40;88.30;;;;;;5068586;28;20036;-73
2021/03/07 04:57:33;;;;;;;29.90;22.73;;;-3276.40;88.20;;;;;;5069031;28;20029;-71
2021/03/07 04:59:59;;;;;;;29.17;22.73;;;-3276.40;88.20;;;;;;5068617;28;20539;-71
2021/03/07 05:02:25;;;;;;;32.00;23.48;;;-3276.40;88.30;;;;;;5063290;28;20128;-72
2021/03/07 05:04:50;;;;;;;30.38;23.13;;;-3276.40;88.20;;;;;;5067116;28;20036;-78
2021/03/07 05:07:16;;;;;;;28.00;22.17;;;-3276.40;88.10;;;;;;5059632;28;20032;-71
2021/03/07 05:09:42;;;;;;;31.35;22.75;;;-3276.40;87.90;;;;;;5065517;28;20055;-71
2021/03/07 05:12:08;;;;;;;26.33;22.15;;;-3276.30;87.90;;;;;;5065930;28;20024;-71
2021/03/07 05:14:33;;;;;;;26.83;23.05;;;-3276.30;87.80;;;;;;5060920;28;20029;-72
2021/03/07 05:16:59;;;;;;;26.40;23.25;;;-3276.30;87.90;;;;;;5060627;28;20033;-76
2021/03/07 05:19:25;;;;;;;29.92;21.98;;;-3276.30;88.00;;;;;;5067067;28;20403;-73
2021/03/07 05:21:51;;;;;;;29.90;22.90;;;-3276.20;88.00;;;;;;5065812;28;20025;-71
2021/03/07 05:24:17;;;;;;;28.95;23.50;;;-3276.10;88.10;;;;;;5052891;28;20033;-72
2021/03/07 05:26:44;;;;;;;29.70;23.92;;;-3276.10;88.20;;;;;;5067155;28;20036;-80
2021/03/07 05:29:10;;;;;;;30.13;24.70;;;-3276.20;88.30;;;;;;5061719;28;20035;-71
2021/03/07 05:31:35;;;;;;;29.73;24.05;;;-3276.10;88.40;;;;;;5060669;28;20032;-76
2021/03/07 05:34:01;;;;;;;33.92;25.52;;;-3276.10;88.20;;;;;;5052562;28;20028;-72
2021/03/07 05:36:27;;;;;;;30.42;23.95;;;-3276.20;88.40;;;;;;5059825;28;20040;-74
2021/03/07 05:38:54;;;;;;;29.67;24.27;;;-3276.20;88.40;;;;;;5066302;28;20028;-71
2021/03/07 05:41:19;;;;;;;30.70;25.50;;;-3276.10;88.30;;;;;;5061763;28;20029;-71
2021/03/07 05:43:47;;;;;;;31.38;24.13;;;-3276.20;88.40;;;;;;5065171;28;20487;-72
2021/03/07 05:46:13;;;;;;;33.28;25.48;;;-3276.10;88.50;;;;;;5058326;28;20076;-73
2021/03/07 05:48:39;;;;;;;37.35;26.23;;;-3276.10;88.50;;;;;;5061353;28;20060;-72
2021/03/07 05:51:05;;;;;;;33.83;27.00;;;-3276.10;88.50;;;;;;5062803;28;20434;-72
2021/03/07 05:53:31;;;;;;;35.47;27.80;;;-3276.10;88.70;;;;;;5065929;28;20056;-72
2021/03/07 05:55:57;;;;;;;31.88;25.35;;;-3276.00;88.80;;;;;;5063039;28;20036;-72
2021/03/07 05:58:26;;;;;;;30.17;25.60;;;-3276.00;88.90;;;;;;5066788;28;20145;-71
2021/03/07 06:00:51;;;;;;;30.30;25.00;;;-3276.00;89.00;;;;;;5067034;28;20029;-74
2021/03/07 06:03:20;;;;;;;34.20;25.75;;;-3276.00;89.00;;;;;;5059629;28;20121;-72
2021/03/07 06:05:49;;;;;;;32.30;26.13;;;-3275.90;89.10;;;;;;5065282;28;20082;-71
2021/03/07 06:08:15;;;;;;;31.77;25.60;;;-3275.90;89.30;;;;;;5062599;28;20532;-71
2021/03/07 06:10:40;;;;;;;31.83;25.55;;;-3276.00;89.20;;;;;;5066744;28;20052;-75
2021/03/07 06:13:11;;;;;;;33.15;26.42;;;-3275.90;89.20;;;;;;5065974;28;20032;-71
2021/03/07 06:15:38;;;;;;;35.42;25.85;;;-3275.90;89.10;;;;;;5061293;28;20124;-80
2021/03/07 06:18:20;;;;;;;37.05;29.13;;;-3275.90;89.20;;;;;;5064034;28;20036;-80
2021/03/07 06:20:49;;;;;;;36.50;28.75;;;-3275.90;89.00;;;;;;5064064;28;20112;-72
2021/03/07 06:23:15;;;;;;;38.38;29.65;;;-3276.00;88.90;;;;;;5061383;28;20039;-73
2021/03/07 06:25:51;;;;;;;39.15;31.25;;;-3276.00;89.00;;;;;;5061918;28;20123;-72
2021/03/07 06:28:25;;;;;;;44.67;32.28;;;-3276.00;89.00;;;;;;5058771;28;20060;-75
2021/03/07 06:30:52;;;;;;;37.80;31.67;;;-3275.90;89.00;;;;;;5057064;28;20028;-72
2021/03/07 06:33:37;;;;;;;40.15;30.67;;;-3275.90;89.10;;;;;;5063390;28;20267;-72
2021/03/07 06:36:23;;;;;;;39.03;30.45;;;-3276.00;89.30;;;;;;5060205;28;20044;-72
2021/03/07 06:38:51;;;;;;;37.40;29.63;;;-3276.00;89.20;;;;;;5061043;28;20036;-72
2021/03/07 06:41:22;;;;;;;38.08;28.90;;;-3276.00;89.30;;;;;;5065743;28;20040;-72
2021/03/07 06:43:49;;;;;;;36.78;27.52;;;-3276.10;89.40;;;;;;5064383;28;20036;-71
2021/03/07 06:46:34;;;;;;;34.58;26.75;;;-3276.10;89.40;;;;;;5052814;28;20083;-71
2021/03/07 06:49:00;;;;;;;;;;;-3276.20;89.30;;;;;;5063294;28;20032;-71
2021/03/07 06:51:31;;;;;;;30.63;25.48;;;-3276.10;89.10;;;;;;5057822;28;20283;-72
2021/03/07 06:54:17;;;;;;;32.15;25.35;;;-3276.20;89.00;;;;;;5060579;28;20078;-72
2021/03/07 06:56:48;;;;;;;33.00;24.90;;;-3276.20;88.90;;;;;;5057819;28;20040;-71
2021/03/07 06:59:19;;;;;;;34.20;25.67;;;-3276.20;88.80;;;;;;5061922;28;20368;-73
2021/03/07 07:01:53;;;;;;;29.02;23.98;;;-3276.20;88.70;;;;;;5059798;28;20032;-72
2021/03/07 07:04:20;;;;;;;29.70;24.40;;;-3276.20;88.70;;;;;;5063365;28;20036;-73
2021/03/07 07:07:06;;;;;;;29.73;24.45;;;-3276.30;88.60;;;;;;5061337;28;20063;-72
2021/03/07 07:09:32;;;;;;;33.08;24.92;;;-3276.30;88.50;;;;;;5056428;28;20037;-72
2021/03/07 07:11:58;;;;;;;29.90;24.50;;;-3276.30;88.40;;;;;;5065374;28;20033;-73
2021/03/07 07:14:41;;;;;;;32.05;25.27;;;-3276.30;88.20;;;;;;5059985;28;20029;-73
2021/03/07 07:17:12;;;;;;;31.73;26.38;;;-3276.40;88.00;;;;;;5062549;28;20152;-75
2021/03/07 07:19:39;;;;;;;31.67;25.27;;;-3276.40;87.90;;;;;;5070211;28;20040;-81
2021/03/07 07:22:06;;;;;;;35.00;27.70;;;-3276.50;87.80;;;;;;5054138;28;20040;-71
2021/03/07 07:24:32;;;;;;;32.03;26.27;;;-3276.60;87.70;;;;;;5064822;28;20036;-75
2021/03/07 07:26:58;;;;;;;37.53;29.48;;;-3276.60;87.60;;;;;;5064424;28;20029;-72
2021/03/07 07:29:24;;;;;;;34.55;28.25;;;-3276.70;87.60;;;;;;5061216;28;20534;-72
2021/03/07 07:32:15;;;;;;;38.53;27.83;;;0.00;87.70;;;;;;5064171;28;20482;-71
2021/03/07 07:34:52;;;;;;;37.35;29.85;;;0.00;87.80;;;;;;5066110;28;20246;-73
2021/03/07 07:37:25;;;;;;;37.40;27.92;;;0.10;87.80;;;;;;5064106;28;20506;-73
2021/03/07 07:39:53;;;;;;;36.53;29.40;;;0.20;88.20;;;;;;5064565;28;20106;-76
2021/03/07 07:42:22;;;;;;;38.58;30.17;;;0.30;88.30;;;;;;5053077;28;20041;-72
2021/03/07 07:44:48;;;;;;;39.85;31.77;;;0.30;88.40;;;;;;5063343;28;20376;-71
2021/03/07 07:47:15;;;;;;;40.15;31.45;;;0.40;88.60;;;;;;5053446;28;20476;-71
2021/03/07 07:49:49;;;;;;;42.08;33.47;;;0.40;88.60;;;;;;5069296;28;20037;-72
2021/03/07 07:52:24;;;;;;;43.53;35.30;;;0.50;88.80;;;;;;5055255;28;20120;-71
2021/03/07 07:55:07;;;;;;;;;;;0.50;88.90;;;;;;5053823;28;20036;-72
2021/03/07 07:57:41;;;;;;;40.83;31.77;;;0.60;89.00;;;;;;5044797;28;19943;-71
2021/03/07 08:00:10;;;;;;;44.38;34.47;;;0.60;89.00;;;;;;5038845;28;20041;-72
2021/03/07 08:02:42;;;;;;;43.22;34.08;;;0.70;89.10;;;;;;5036754;28;21213;-72
2021/03/07 08:05:37;;;;;;;48.88;36.80;;;0.70;89.10;;;;;;5037740;28;20049;-71
2021/03/07 08:08:05;;;;;;;41.53;32.80;;;0.80;89.10;;;;;;5034512;28;20112;-71
2021/03/07 08:10:36;;;;;;;39.33;32.78;;;0.90;88.90;;;;;;5038496;28;20063;-72
2021/03/07 08:13:02;;;;;;;41.28;31.83;;;1.00;88.80;;;;;;5040717;28;20051;-77
2021/03/07 08:15:28;;;;;;;40.85;32.22;;;1.10;88.60;;;;;;5051345;28;20060;-72
2021/03/07 08:17:58;;;;;;;46.20;33.15;;;1.30;88.40;;;;;;5056074;28;20740;-72
2021/03/07 08:20:42;;;;;;;38.10;30.35;;;1.40;88.00;;;;;;5052920;28;20031;-72
2021/03/07 08:23:08;;;;;;;35.42;29.88;;;1.60;87.70;;;;;;5055237;28;20072;-75
2021/03/07 08:25:46;;;;;;;38.58;32.15;;;1.70;87.30;;;;;;5058726;28;20078;-74
2021/03/07 08:28:26;;;;;;;36.47;30.23;;;1.80;87.20;;;;;;5058971;28;20048;-76
2021/03/07 08:30:57;;;;;;;34.42;28.70;;;2.10;86.90;;;;;;5058429;28;22100;-74
2021/03/07 08:33:33;;;;;;;33.97;28.13;;;2.20;86.20;;;;;;5066399;28;20071;-72
2021/03/07 08:36:21;;;;;;;30.60;26.45;;;2.40;85.80;;;;;;5062106;28;20032;-72
2021/03/07 08:38:52;;;;;;;34.40;27.83;;;2.70;85.40;;;;;;5056105;28;20064;-73
2021/03/07 08:41:19;;;;;;;32.50;25.85;;;2.80;84.60;;;;;;5059122;28;20048;-74
2021/03/07 08:43:46;;;;;;;29.27;23.25;;;3.10;84.40;;;;;;5060224;28;20776;-73
2021/03/07 08:46:15;;;;;;;29.17;23.05;;;3.20;83.40;;;;;;5050866;28;20098;-72
2021/03/07 08:48:49;;;;;;;32.53;24.65;;;3.10;82.60;;;;;;5052753;28;20040;-79
2021/03/07 08:51:17;;;;;;;29.98;23.50;;;3.30;83.30;;;;;;5060126;28;20590;-74
2021/03/07 08:53:45;;;;;;;27.23;22.30;;;3.70;83.10;;;;;;5053897;28;20041;-78
2021/03/07 08:56:11;;;;;;;29.05;21.58;;;3.90;81.60;;;;;;5058715;28;20093;-75
2021/03/07 08:58:38;;;;;;;28.10;21.52;;;4.00;80.50;;;;;;5068434;28;20112;-73
2021/03/07 09:01:06;;;;;;;28.17;21.08;;;4.10;80.60;;;;;;5061497;28;20050;-75
2021/03/07 09:03:32;;;;;;;23.35;19.30;;;4.20;80.60;;;;;;5066932;28;20037;-76
2021/03/07 09:05:57;;;;;;;27.08;20.67;;;4.30;79.70;;;;;;5066995;28;20036;-71
2021/03/07 09:08:25;;;;;;;26.73;21.48;;;4.50;79.40;;;;;;5059521;28;20368;-72
2021/03/07 09:10:53;;;;;;;22.45;18.40;;;4.70;79.20;;;;;;5061580;28;20562;-71
2021/03/07 09:13:21;;;;;;;25.15;19.55;;;4.60;77.90;;;;;;5055702;28;20024;-77
2021/03/07 09:15:52;;;;;;;25.15;19.20;;;4.60;78.20;;;;;;5060715;28;20037;-72
2021/03/07 09:18:19;;;;;;;23.55;19.35;;;4.70;78.40;;;;;;5068295;28;20493;-75
2021/03/07 09:20:48;;;;;;;23.63;18.38;;;5.00;77.80;;;;;;5063981;28;20028;-71
2021/03/07 09:23:38;;;;;;;23.55;17.60;;;5.00;77.30;;;;;;5064260;28;20483;-79
2021/03/07 09:26:13;;;;;;;21.48;14.05;;;5.20;76.00;;;;;;5060017;28;20040;-71
2021/03/07 09:28:49;;;;;;;18.52;14.40;;;5.50;74.40;;;;;;5058937;28;20764;-74
2021/03/07 09:31:24;;;;;;;18.38;14.43;;;5.70;74.20;;;;;;5041663;28;20694;-72
2021/03/07 09:33:51;;;;;;;20.75;14.80;;;5.90;73.10;;;;;;5053145;28;20608;-72
2021/03/07 09:36:22;;;;;;;16.55;13.57;;;6.10;72.70;;;;;;5053670;28;20037;-76
2021/03/07 09:38:53;;;;;;;21.92;15.38;;;5.50;71.20;;;;;;5052107;28;20177;-77
2021/03/07 09:41:39;;;;;;;17.75;13.63;;;5.60;72.30;;;;;;5033571;28;20033;-78
2021/03/07 09:44:16;;;;;;;17.20;13.75;;;5.80;72.90;;;;;;5039528;28;20041;-82
2021/03/07 09:46:46;;;;;;;17.45;12.45;;;5.60;73.20;;;;;;5034741;28;20045;-79
2021/03/07 09:49:14;;;;;;;20.23;13.90;;;5.60;69.90;;;;;;5042164;28;20839;-72
2021/03/07 09:51:42;;;;;;;21.50;15.52;;;5.50;71.50;;;;;;5040379;28;20033;-81
2021/03/07 09:54:12;;;;;;;21.90;15.65;;;5.80;73.00;;;;;;5036831;28;20205;-77
2021/03/07 09:56:39;;;;;;;21.65;13.80;;;6.00;71.30;;;;;;5035951;28;20447;-70
2021/03/07 09:59:34;;;;;;;20.00;14.60;;;6.10;69.40;;;;;;5044939;28;20039;-70
2021/03/07 10:02:01;;;;;;;;;;;6.00;70.10;;;;;;5041106;28;20055;-75
2021/03/07 10:04:31;;;;;;;20.20;14.27;;;6.10;67.50;;;;;;5042322;28;19969;-70
2021/03/07 10:06:58;;;;;;;16.63;12.25;;;6.10;69.40;;;;;;5045168;28;20040;-78
2021/03/07 10:09:23;;;;;;;22.67;13.82;;;6.10;66.90;;;;;;5048503;28;20044;-74
2021/03/07 10:12:02;;;;;;;20.77;14.10;;;6.20;66.30;;;;;;5043217;28;20434;-76
2021/03/07 10:14:32;;;;;;;24.85;16.75;;;6.50;66.30;;;;;;5045098;28;20081;-76
2021/03/07 10:16:59;;;;;;;19.98;15.65;;;6.20;67.40;;;;;;5042850;28;20056;-72
2021/03/07 10:19:36;;;;;;;20.17;13.50;;;5.90;67.20;;;;;;5043332;28;20059;-74
2021/03/07 10:22:04;;;;;;;18.13;13.63;;;6.00;65.60;;;;;;5043368;28;20064;-73
2021/03/07 10:24:31;;;;;;;17.42;12.57;;;6.10;66.50;;;;;;5046796;28;20036;-71
2021/03/07 10:27:05;;;;;;;16.48;12.63;;;6.30;62.50;;;;;;5046815;28;20344;-71
2021/03/07 10:29:40;;;;;;;20.90;13.53;;;6.00;61.90;;;;;;5049447;28;20055;-76
2021/03/07 10:32:06;;;;;;;18.23;14.30;;;6.20;63.40;;;;;;5049290;28;20043;-80
2021/03/07 10:34:35;;;;;;;21.52;14.52;;;6.50;61.50;;;;;;5043937;28;20032;-75
2021/03/07 10:37:00;;;;;;;20.05;14.60;;;6.40;62.60;;;;;;5049135;28;20087;-78
2021/03/07 10:39:26;;;;;;;17.98;14.77;;;6.60;61.20;;;;;;5022371;28;20028;-72
2021/03/07 10:42:10;;;;;;;17.50;13.68;;;6.70;61.00;;;;;;5036134;28;20041;-77
2021/03/07 10:44:39;;;;;;;17.10;12.70;;;6.50;59.90;;;;;;5030630;28;20102;-75
2021/03/07 10:47:19;;;;;;;19.85;15.18;;;6.20;61.40;;;;;;5027973;28;20300;-73
2021/03/07 10:49:49;;;;;;;23.48;18.95;;;6.20;60.60;;;;;;5029480;28;20029;-71
2021/03/07 10:52:16;;;;;;;19.17;16.83;;;6.00;61.30;;;;;;5033048;28;20487;-73
2021/03/07 10:54:42;;;;;;;23.85;19.58;;;6.10;59.60;;;;;;5028002;28;20037;-75
2021/03/07 10:57:09;;;;;;;23.15;20.45;;;6.20;57.40;;;;;;5033710;28;20055;-78
2021/03/07 10:59:36;;;;;;;25.98;23.00;;;6.60;58.40;;;;;;5030285;28;20059;-75
2021/03/07 11:02:03;;;;;;;23.23;19.50;;;6.70;57.60;;;;;;5030482;28;20061;-74
2021/03/07 11:04:29;;;;;;;23.23;19.30;;;6.60;59.10;;;;;;5040131;28;20073;-72
2021/03/07 11:06:55;;;;;;;26.45;21.38;;;6.40;60.20;;;;;;5035121;28;20036;-71
2021/03/07 11:09:20;;;;;;;26.65;21.63;;;6.30;60.00;;;;;;5038583;28;20095;-80
2021/03/07 11:11:46;;;;;;;26.30;18.42;;;6.20;59.40;;;;;;5046838;28;20044;-72
2021/03/07 11:14:12;;;;;;;21.35;16.85;;;6.20;59.10;;;;;;5041301;28;20469;-73
2021/03/07 11:16:37;;;;;;;23.05;17.15;;;6.20;59.50;;;;;;5034540;28;20136;-78
2021/03/07 11:19:03;;;;;;;24.25;17.92;;;6.20;59.50;;;;;;4998790;28;20033;-77
2021/03/07 11:21:28;;;;;;;22.63;17.35;;;6.10;59.60;;;;;;5017271;28;20890;-73
2021/03/07 11:23:54;;;;;;;24.95;17.10;;;6.10;59.70;;;;;;5019107;28;20055;-81
2021/03/07 11:26:20;;;;;;;19.50;14.48;;;6.20;59.00;;;;;;5027341;28;20049;-74
2021/03/07 11:28:45;;;;;;;20.83;15.00;;;6.10;55.50;;;;;;5031377;28;20668;-78
2021/03/07 11:31:11;;;;;;;18.23;14.35;;;6.20;56.00;;;;;;5033942;28;20449;-75
2021/03/07 11:33:36;;;;;;;21.10;15.52;;;6.10;55.10;;;;;;5033820;28;20045;-79
2021/03/07 11:36:02;;;;;;;22.90;16.05;;;6.40;56.30;;;;;;5033434;28;20486;-71
2021/03/07 11:38:28;;;;;;;19.75;15.68;;;6.50;56.20;;;;;;5028698;28;20029;-77
2021/03/07 11:40:53;;;;;;;20.17;15.60;;;6.80;55.50;;;;;;5024696;28;20040;-74
2021/03/07 11:43:19;;;;;;;18.10;13.88;;;7.10;55.30;;;;;;5027699;28;20056;-75
2021/03/07 11:45:44;;;;;;;22.13;16.23;;;7.20;53.50;;;;;;5049955;28;20387;-72
2021/03/07 11:48:10;;;;;;;22.23;16.10;;;7.10;53.80;;;;;;5048984;28;20048;-77
2021/03/07 11:50:36;;;;;;;22.25;17.20;;;7.50;53.60;;;;;;5049763;28;20274;-73
2021/03/07 11:53:02;;;;;;;22.23;17.10;;;7.50;51.60;;;;;;5038107;28;20143;-79
2021/03/07 11:55:27;;;;;;;22.50;16.42;;;7.40;52.50;;;;;;5041744;28;20068;-75
2021/03/07 11:57:53;;;;;;;22.45;17.83;;;7.30;52.00;;;;;;5040768;28;20112;-79
2021/03/07 12:00:19;;;;;;;23.23;16.73;;;7.60;52.50;;;;;;5043137;28;20056;-73
2021/03/07 12:02:45;;;;;;;21.67;16.48;;;7.90;51.10;;;;;;5040133;28;20550;-80
2021/03/07 12:05:11;;;;;;;21.70;16.75;;;7.80;49.40;;;;;;5041169;28;20044;-75
2021/03/07 12:07:36;;;;;;;22.23;17.23;;;7.50;50.90;;;;;;5046644;28;20020;-79
2021/03/07 12:10:03;;;;;;;22.88;16.50;;;7.70;49.80;;;;;;5044550;28;20477;-78
2021/03/07 12:12:28;;;;;;;22.92;18.17;;;7.90;51.00;;;;;;5043584;28;20036;-73
2021/03/07 12:14:54;;;;;;;22.65;17.50;;;8.10;49.70;;;;;;5046745;28;20036;-80
2021/03/07 12:17:20;;;;;;;18.27;15.73;;;7.80;49.80;;;;;;5038916;28;20140;-74
2021/03/07 12:19:45;;;;;;;24.88;17.92;;;7.40;49.70;;;;;;5048272;28;20061;-77
2021/03/07 12:22:11;;;;;;;22.90;17.90;;;7.10;50.80;;;;;;5042623;28;20232;-74
2021/03/07 12:24:37;;;;;;;20.48;16.02;;;6.80;51.20;;;;;;5054599;28;20042;-75
2021/03/07 12:27:05;;;;;;;21.05;16.27;;;7.00;50.80;;;;;;5042052;28;20125;-80